Time;durP1;ratioP1;P1;durP2;ratioP2;P2;SDS_P1;SDS_P2;PMS_P1;PMS_P2;Temp;Humidity;BMP_temperature;BMP_pressure;BME280_temperature;BME280_humidity;BME280_pressure;Samples;Min_cycle;Max_cycle;Signal;HPM_P1;HPM_P2
2022/07/07 00:02:07;;;;;;;3.22;1.15;;;18.10;99.90;;;;;;4993277;28;20296;-77
2022/07/07 00:04:33;;;;;;;1.45;0.82;;;18.10;99.90;;;;;;4994662;28;20349;-77
2022/07/07 00:06:59;;;;;;;2.38;0.70;;;18.10;99.90;;;;;;4994744;28;20691;-76
2022/07/07 00:09:25;;;;;;;4.53;1.20;;;18.00;99.90;;;;;;4993360;28;20296;-75
2022/07/07 00:11:51;;;;;;;2.80;0.80;;;18.10;99.90;;;;;;4995229;28;20750;-77
2022/07/07 00:14:16;;;;;;;1.85;0.98;;;18.10;99.90;;;;;;4994535;28;20251;-77
2022/07/07 00:16:42;;;;;;;2.45;0.88;;;18.20;99.90;;;;;;4994362;28;20300;-77
2022/07/07 00:19:07;;;;;;;1.90;0.80;;;18.20;99.90;;;;;;4994268;28;20248;-77
2022/07/07 00:21:33;;;;;;;1.63;0.80;;;18.20;99.90;;;;;;4994591;28;20614;-78
2022/07/07 00:23:59;;;;;;;2.17;1.00;;;18.20;99.90;;;;;;4995049;28;20241;-77
2022/07/07 00:26:24;;;;;;;2.08;0.90;;;18.20;99.90;;;;;;4994263;28;20632;-76
2022/07/07 00:28:50;;;;;;;3.42;1.25;;;18.20;99.90;;;;;;4993915;28;20296;-77
2022/07/07 00:31:16;;;;;;;2.80;1.20;;;18.30;99.90;;;;;;4994322;28;20205;-77
2022/07/07 00:33:41;;;;;;;2.05;0.90;;;18.30;99.90;;;;;;4994137;28;20178;-76
2022/07/07 00:36:07;;;;;;;5.63;2.90;;;18.30;99.90;;;;;;4994822;28;20182;-77
2022/07/07 00:38:34;;;;;;;4.75;1.38;;;18.30;99.90;;;;;;4993836;28;20213;-76
2022/07/07 00:41:00;;;;;;;3.72;2.05;;;18.30;99.90;;;;;;4994112;28;20709;-77
2022/07/07 00:43:26;;;;;;;2.33;1.27;;;18.30;99.90;;;;;;5006771;28;20288;-77
2022/07/07 00:45:51;;;;;;;1.13;0.80;;;18.30;99.90;;;;;;4993835;28;20228;-76
2022/07/07 00:48:21;;;;;;;2.50;0.90;;;18.30;99.90;;;;;;5009144;28;20619;-77
2022/07/07 00:50:47;;;;;;;1.42;0.77;;;18.20;99.90;;;;;;4994244;28;20213;-77
2022/07/07 00:53:15;;;;;;;1.45;1.08;;;18.10;99.90;;;;;;4994161;28;20224;-77
2022/07/07 00:55:41;;;;;;;2.13;1.00;;;18.10;99.90;;;;;;4992793;28;20348;-75
2022/07/07 00:58:07;;;;;;;5.10;1.10;;;18.10;99.90;;;;;;4993625;28;20300;-76
2022/07/07 01:00:33;;;;;;;2.70;0.85;;;18.10;99.90;;;;;;4992594;28;20202;-75
2022/07/07 01:02:58;;;;;;;1.13;0.70;;;18.10;99.90;;;;;;4994466;28;20170;-75
2022/07/07 01:05:25;;;;;;;3.03;0.90;;;18.10;99.90;;;;;;5008996;28;20581;-76
2022/07/07 01:07:52;;;;;;;1.90;0.80;;;18.10;99.90;;;;;;4993818;28;20208;-75
2022/07/07 01:10:18;;;;;;;4.40;0.93;;;18.00;99.90;;;;;;4993567;28;20217;-76
2022/07/07 01:12:44;;;;;;;1.80;0.70;;;18.00;99.90;;;;;;5008685;28;20178;-74
2022/07/07 01:15:12;;;;;;;4.78;0.98;;;17.90;99.90;;;;;;4994507;28;20205;-75
2022/07/07 01:17:38;;;;;;;2.88;0.90;;;17.90;99.90;;;;;;4993676;28;20209;-76
2022/07/07 01:20:07;;;;;;;2.70;0.73;;;17.80;99.90;;;;;;4993203;28;20695;-76
2022/07/07 01:22:38;;;;;;;2.60;0.60;;;17.70;99.90;;;;;;4993552;28;20213;-75
2022/07/07 01:25:07;;;;;;;2.00;0.80;;;17.60;99.90;;;;;;4992273;28;20233;-77
2022/07/07 01:27:33;;;;;;;2.53;0.82;;;17.40;99.90;;;;;;4992018;28;20185;-74
2022/07/07 01:29:58;;;;;;;1.23;0.85;;;17.40;99.90;;;;;;4993631;28;20201;-74
2022/07/07 01:32:25;;;;;;;2.40;0.90;;;17.40;99.90;;;;;;4993292;28;20260;-77
2022/07/07 01:34:51;;;;;;;4.97;1.25;;;17.30;99.90;;;;;;4993472;28;20206;-74
2022/07/07 01:37:18;;;;;;;3.88;1.20;;;17.30;99.90;;;;;;4993314;28;20769;-75
2022/07/07 01:39:43;;;;;;;4.32;1.50;;;17.20;99.90;;;;;;4992508;28;20201;-75
2022/07/07 01:42:10;;;;;;;2.58;1.02;;;17.20;99.90;;;;;;4992478;28;20532;-75
2022/07/07 01:44:37;;;;;;;1.15;0.85;;;17.10;99.90;;;;;;4993239;28;20296;-75
2022/07/07 01:47:04;;;;;;;3.03;1.00;;;17.10;99.90;;;;;;4993147;28;20198;-76
2022/07/07 01:49:31;;;;;;;2.80;0.98;;;17.10;99.90;;;;;;4992591;28;20233;-75
2022/07/07 01:51:57;;;;;;;1.55;0.90;;;17.10;99.90;;;;;;4993150;28;20209;-76
2022/07/07 01:54:23;;;;;;;1.90;0.77;;;17.10;99.90;;;;;;4993322;28;20170;-76
2022/07/07 01:56:48;;;;;;;2.97;1.13;;;17.10;99.90;;;;;;4991598;28;20615;-75
2022/07/07 01:59:14;;;;;;;4.10;1.65;;;17.10;99.90;;;;;;4991512;28;20217;-76
2022/07/07 02:01:40;;;;;;;6.28;1.63;;;17.00;99.90;;;;;;4993152;28;20216;-77
2022/07/07 02:04:06;;;;;;;2.95;1.40;;;17.00;99.90;;;;;;4994377;28;20226;-76
2022/07/07 02:06:32;;;;;;;2.28;1.15;;;17.00;99.90;;;;;;4993635;28;20261;-76
2022/07/07 02:08:58;;;;;;;3.60;1.00;;;17.00;99.90;;;;;;4991955;28;20209;-75
2022/07/07 02:11:23;;;;;;;3.20;1.60;;;17.00;99.90;;;;;;4992811;28;20240;-77
2022/07/07 02:13:51;;;;;;;2.30;1.20;;;16.70;99.90;;;;;;4992979;28;20693;-76
2022/07/07 02:16:19;;;;;;;1.25;0.90;;;16.70;99.90;;;;;;4991761;28;20210;-77
2022/07/07 02:18:48;;;;;;;5.22;1.77;;;16.60;99.90;;;;;;4992152;28;20233;-76
2022/07/07 02:21:15;;;;;;;7.47;1.40;;;16.50;99.90;;;;;;4993286;28;20174;-77
2022/07/07 02:23:43;;;;;;;5.38;1.73;;;16.40;99.90;;;;;;4992658;28;20221;-76
2022/07/07 02:26:10;;;;;;;1.92;1.30;;;16.60;99.90;;;;;;4992592;28;20201;-76
2022/07/07 02:28:35;;;;;;;2.95;1.10;;;16.60;99.90;;;;;;4990623;28;20217;-76
2022/07/07 02:31:01;;;;;;;3.95;1.42;;;16.40;99.90;;;;;;4991048;28;20240;-76
2022/07/07 02:33:27;;;;;;;1.63;1.25;;;16.50;99.90;;;;;;4989746;28;20187;-76
2022/07/07 02:35:54;;;;;;;2.63;0.98;;;16.40;99.90;;;;;;4989740;28;20650;-76
2022/07/07 02:38:21;;;;;;;7.47;1.88;;;16.30;99.90;;;;;;4991681;28;20205;-76
2022/07/07 02:40:47;;;;;;;2.90;1.48;;;16.40;99.90;;;;;;4983824;28;20221;-76
2022/07/07 02:43:13;;;;;;;2.33;1.38;;;16.40;99.90;;;;;;4991982;28;20208;-76
2022/07/07 02:45:47;;;;;;;4.25;1.48;;;16.50;99.90;;;;;;4990366;28;20536;-77
2022/07/07 02:48:15;;;;;;;2.45;1.52;;;16.50;99.90;;;;;;4992277;28;20174;-75
2022/07/07 02:50:40;;;;;;;3.95;1.13;;;16.50;99.90;;;;;;4991632;28;22383;-76
2022/07/07 02:53:09;;;;;;;2.10;1.45;;;16.50;99.90;;;;;;4991807;28;20286;-76
2022/07/07 02:55:35;;;;;;;3.42;1.63;;;16.50;99.90;;;;;;4990308;28;20288;-76
2022/07/07 02:58:02;;;;;;;3.45;1.42;;;16.30;99.90;;;;;;4991661;28;20852;-76
2022/07/07 03:00:28;;;;;;;3.80;1.30;;;16.40;99.90;;;;;;4991273;28;20729;-76
2022/07/07 03:02:55;;;;;;;3.13;1.20;;;16.40;99.90;;;;;;5007354;28;20682;-76
2022/07/07 03:05:24;;;;;;;4.03;1.67;;;16.30;99.90;;;;;;4992854;28;20686;-75
2022/07/07 03:07:49;;;;;;;1.60;1.23;;;16.00;99.90;;;;;;4991572;28;20214;-76
2022/07/07 03:10:15;;;;;;;7.50;1.52;;;16.10;99.90;;;;;;4991207;28;20214;-75
2022/07/07 03:12:41;;;;;;;4.35;1.17;;;16.00;99.90;;;;;;4991337;28;20190;-76
2022/07/07 03:15:07;;;;;;;3.45;1.60;;;16.00;99.90;;;;;;4992229;28;20177;-76
2022/07/07 03:17:33;;;;;;;3.47;1.55;;;16.00;99.90;;;;;;4991359;28;20208;-76
2022/07/07 03:20:00;;;;;;;2.72;1.67;;;16.00;99.90;;;;;;4990841;28;20740;-76
2022/07/07 03:22:26;;;;;;;2.97;1.55;;;16.00;99.90;;;;;;4991412;28;20300;-75
2022/07/07 03:24:52;;;;;;;3.30;1.58;;;15.90;99.90;;;;;;4991587;28;20288;-76
2022/07/07 03:27:17;;;;;;;3.13;1.20;;;15.90;99.90;;;;;;4991900;28;20182;-77
2022/07/07 03:29:43;;;;;;;5.63;1.42;;;15.90;99.90;;;;;;4990883;28;20705;-76
2022/07/07 03:32:09;;;;;;;4.18;1.85;;;16.00;99.90;;;;;;5006566;28;20206;-76
2022/07/07 03:34:35;;;;;;;3.88;1.85;;;16.00;99.90;;;;;;4991343;28;20205;-76
2022/07/07 03:37:01;;;;;;;2.70;1.67;;;15.80;99.90;;;;;;4991288;28;20632;-76
2022/07/07 03:39:27;;;;;;;3.40;1.60;;;16.00;99.90;;;;;;4990397;28;20217;-76
2022/07/07 03:41:52;;;;;;;5.65;1.98;;;16.20;99.90;;;;;;4991873;28;20177;-76
2022/07/07 03:44:18;;;;;;;2.75;1.77;;;16.10;99.90;;;;;;4991467;28;20205;-76
2022/07/07 03:46:44;;;;;;;4.13;1.40;;;16.00;99.90;;;;;;4990703;28;20205;-76
2022/07/07 03:49:10;;;;;;;3.45;1.83;;;15.90;99.90;;;;;;4990942;28;20643;-76
2022/07/07 03:51:36;;;;;;;2.42;1.77;;;15.80;99.90;;;;;;4991177;28;20305;-76
2022/07/07 03:54:02;;;;;;;2.17;1.80;;;15.90;99.90;;;;;;4991757;28;20192;-76
2022/07/07 03:56:28;;;;;;;4.75;1.75;;;16.00;99.90;;;;;;4990906;28;20683;-76
2022/07/07 03:58:53;;;;;;;3.00;1.80;;;16.10;99.90;;;;;;4990749;28;20212;-78
2022/07/07 04:01:19;;;;;;;2.22;1.45;;;16.00;99.90;;;;;;4989768;28;20217;-76
2022/07/07 04:03:44;;;;;;;3.47;1.42;;;16.00;99.90;;;;;;4982893;28;20217;-76
2022/07/07 04:06:10;;;;;;;4.00;1.40;;;16.00;99.90;;;;;;4991797;28;20221;-78
2022/07/07 04:08:35;;;;;;;3.40;1.60;;;16.00;99.90;;;;;;4988525;28;20209;-75
2022/07/07 04:11:01;;;;;;;4.32;1.90;;;16.10;99.90;;;;;;4985135;28;20329;-76
2022/07/07 04:13:27;;;;;;;3.00;1.73;;;16.00;99.90;;;;;;5005165;28;20647;-77
2022/07/07 04:15:52;;;;;;;2.33;1.65;;;15.80;99.90;;;;;;4982418;28;20209;-76
2022/07/07 04:18:18;;;;;;;3.15;1.70;;;15.80;99.90;;;;;;4991252;28;20181;-76
2022/07/07 04:20:43;;;;;;;3.13;1.83;;;15.70;99.90;;;;;;5005734;28;20245;-77
2022/07/07 04:23:09;;;;;;;2.92;1.73;;;15.70;99.90;;;;;;4992427;28;20289;-76
2022/07/07 04:25:35;;;;;;;4.07;1.88;;;15.60;99.90;;;;;;4994261;28;20205;-76
2022/07/07 04:28:00;;;;;;;3.17;1.98;;;15.40;99.90;;;;;;5009433;28;20205;-76
2022/07/07 04:30:26;;;;;;;2.70;2.03;;;15.30;99.90;;;;;;4993987;28;20730;-76
2022/07/07 04:32:52;;;;;;;3.40;1.80;;;15.40;99.90;;;;;;4994648;28;20189;-75
2022/07/07 04:35:17;;;;;;;3.03;2.40;;;15.50;99.90;;;;;;4995895;28;20202;-75
2022/07/07 04:37:43;;;;;;;4.65;2.67;;;15.60;99.90;;;;;;4993991;28;20214;-75
2022/07/07 04:40:09;;;;;;;8.18;3.33;;;15.60;99.90;;;;;;4993884;28;20222;-77
2022/07/07 04:42:34;;;;;;;4.00;2.30;;;15.60;99.90;;;;;;4983371;28;20186;-76
2022/07/07 04:45:00;;;;;;;4.82;1.95;;;15.60;99.90;;;;;;4983504;28;20209;-76
2022/07/07 04:47:26;;;;;;;3.20;2.08;;;15.50;99.90;;;;;;4975214;28;20202;-76
2022/07/07 04:49:52;;;;;;;4.22;2.17;;;15.50;99.90;;;;;;4982562;28;20227;-76
2022/07/07 04:52:18;;;;;;;4.00;2.40;;;15.60;99.90;;;;;;4974785;28;20214;-76
2022/07/07 04:54:43;;;;;;;3.70;2.30;;;15.50;99.90;;;;;;4974694;28;20229;-77
2022/07/07 04:57:09;;;;;;;3.33;2.00;;;15.60;99.90;;;;;;4975148;28;20176;-75
2022/07/07 04:59:34;;;;;;;3.67;1.92;;;15.50;99.90;;;;;;4982022;28;20730;-75
2022/07/07 05:02:00;;;;;;;3.63;2.22;;;15.60;99.90;;;;;;4974549;28;20295;-76
2022/07/07 05:04:26;;;;;;;2.33;1.83;;;15.70;99.90;;;;;;4982661;28;20206;-75
2022/07/07 05:06:51;;;;;;;2.85;1.80;;;15.80;99.90;;;;;;4974665;28;20206;-75
2022/07/07 05:09:17;;;;;;;2.08;1.73;;;15.80;99.90;;;;;;4974582;28;20572;-76
2022/07/07 05:11:42;;;;;;;5.63;3.80;;;15.80;99.90;;;;;;4976956;28;20297;-76
2022/07/07 05:14:08;;;;;;;4.40;2.60;;;15.80;99.90;;;;;;4974359;28;20198;-76
2022/07/07 05:16:34;;;;;;;4.72;2.53;;;15.70;99.90;;;;;;4974425;28;20218;-76
2022/07/07 05:18:59;;;;;;;3.10;2.22;;;15.70;99.90;;;;;;4974087;28;20309;-76
2022/07/07 05:21:25;;;;;;;4.80;2.42;;;15.70;99.90;;;;;;4974278;28;20175;-76
2022/07/07 05:23:51;;;;;;;3.83;2.33;;;15.90;99.90;;;;;;4982900;28;20266;-76
2022/07/07 05:26:16;;;;;;;2.50;1.88;;;15.90;99.90;;;;;;4974315;28;20210;-75
2022/07/07 05:28:42;;;;;;;3.53;2.15;;;15.70;99.90;;;;;;4973573;28;20252;-75
2022/07/07 05:31:10;;;;;;;5.35;2.38;;;15.70;99.90;;;;;;4974129;28;20249;-75
2022/07/07 05:33:36;;;;;;;2.95;2.00;;;15.80;99.90;;;;;;4973673;28;20179;-75
2022/07/07 05:36:02;;;;;;;2.55;1.60;;;15.90;99.90;;;;;;5003018;28;20312;-74
2022/07/07 05:38:28;;;;;;;2.30;1.50;;;15.80;99.90;;;;;;4976017;28;20289;-75
2022/07/07 05:40:53;;;;;;;3.17;1.90;;;15.60;99.90;;;;;;4973843;28;20269;-75
2022/07/07 05:43:19;;;;;;;2.50;2.30;;;15.70;99.90;;;;;;4976368;28;20687;-75
2022/07/07 05:45:45;;;;;;;3.08;1.90;;;15.80;99.90;;;;;;4981853;28;20207;-75
2022/07/07 05:48:10;;;;;;;5.50;1.90;;;15.70;99.90;;;;;;4974678;28;20206;-76
2022/07/07 05:50:36;;;;;;;3.60;1.90;;;15.70;99.90;;;;;;4976831;28;20601;-76
2022/07/07 05:53:01;;;;;;;2.60;2.10;;;15.70;99.90;;;;;;4983906;28;20218;-77
2022/07/07 05:55:27;;;;;;;3.30;2.13;;;15.70;99.90;;;;;;4976750;28;20285;-76
2022/07/07 05:57:53;;;;;;;3.45;2.20;;;15.70;99.90;;;;;;4974367;28;20233;-75
2022/07/07 06:00:18;;;;;;;4.35;2.30;;;15.70;99.90;;;;;;4974272;28;20285;-76
2022/07/07 06:02:44;;;;;;;3.42;2.33;;;15.70;99.90;;;;;;4981843;28;20222;-75
2022/07/07 06:05:10;;;;;;;5.57;2.55;;;15.60;99.90;;;;;;4974256;28;20206;-75
2022/07/07 06:07:35;;;;;;;4.55;2.17;;;15.70;99.90;;;;;;4975096;28;20229;-76
2022/07/07 06:10:01;;;;;;;2.92;2.22;;;15.80;99.90;;;;;;4974368;28;20756;-76
2022/07/07 06:12:27;;;;;;;3.45;2.28;;;15.70;99.90;;;;;;4985193;28;20216;-76
2022/07/07 06:14:52;;;;;;;3.55;2.50;;;15.70;99.90;;;;;;4998589;28;20185;-76
2022/07/07 06:17:18;;;;;;;3.40;2.60;;;15.70;99.90;;;;;;4975311;28;20202;-76
2022/07/07 06:19:43;;;;;;;2.42;2.20;;;15.70;99.90;;;;;;4976224;28;20210;-76
2022/07/07 06:22:09;;;;;;;3.78;2.15;;;15.50;99.90;;;;;;4977110;28;20244;-75
2022/07/07 06:24:34;;;;;;;4.45;2.38;;;15.60;99.90;;;;;;4978267;28;20181;-77
2022/07/07 06:27:00;;;;;;;4.80;3.30;;;15.50;99.90;;;;;;5005035;28;20189;-76
2022/07/07 06:29:25;;;;;;;2.38;2.05;;;15.60;99.90;;;;;;4978681;28;20210;-75
2022/07/07 06:31:51;;;;;;;4.57;2.47;;;15.50;99.90;;;;;;4973338;28;20678;-76
2022/07/07 06:34:17;;;;;;;3.17;2.88;;;15.50;99.90;;;;;;4974720;28;20230;-75
2022/07/07 06:36:42;;;;;;;5.55;3.80;;;15.70;99.90;;;;;;4973850;28;20240;-77
2022/07/07 06:39:08;;;;;;;6.95;2.33;;;15.70;99.90;;;;;;4985931;28;20217;-76
2022/07/07 06:41:38;;;;;;;4.18;2.40;;;15.80;99.90;;;;;;4982498;28;20579;-77
2022/07/07 06:44:05;;;;;;;4.43;2.38;;;15.80;99.90;;;;;;4972289;28;20225;-76
2022/07/07 06:46:31;;;;;;;2.83;2.10;;;15.90;99.90;;;;;;5021746;28;20220;-76
2022/07/07 06:48:57;;;;;;;2.67;2.08;;;16.00;99.90;;;;;;5026223;28;20217;-76
2022/07/07 06:51:23;;;;;;;4.38;2.00;;;15.80;99.90;;;;;;4994182;28;20173;-76
2022/07/07 06:53:48;;;;;;;3.50;2.53;;;15.70;99.90;;;;;;5029207;28;20223;-76
2022/07/07 06:56:14;;;;;;;2.58;2.17;;;15.90;99.90;;;;;;5039107;22;20224;-71
2022/07/07 06:58:39;;;;;;;2.13;1.80;;;15.90;99.90;;;;;;5015466;28;20269;-71
2022/07/07 07:01:05;;;;;;;6.50;2.47;;;15.80;99.90;;;;;;5031432;28;20211;-71
2022/07/07 07:03:30;;;;;;;2.03;1.63;;;16.00;99.90;;;;;;5031053;28;20176;-72
2022/07/07 07:05:56;;;;;;;3.10;1.85;;;16.20;99.90;;;;;;5031354;28;20245;-71
2022/07/07 07:08:21;;;;;;;1.52;1.38;;;16.20;99.90;;;;;;5030640;28;20200;-70
2022/07/07 07:10:47;;;;;;;1.80;1.60;;;16.30;99.90;;;;;;5031036;28;20211;-72
2022/07/07 07:13:13;;;;;;;1.90;1.70;;;16.40;99.90;;;;;;5030969;28;20412;-71
2022/07/07 07:15:39;;;;;;;1.75;1.65;;;16.40;99.90;;;;;;5030840;28;20227;-71
2022/07/07 07:18:06;;;;;;;4.22;2.10;;;16.60;99.90;;;;;;5031289;28;20161;-71
2022/07/07 07:20:32;;;;;;;3.78;1.63;;;16.60;99.90;;;;;;5030884;28;20720;-71
2022/07/07 07:22:58;;;;;;;2.33;1.95;;;16.50;99.90;;;;;;5030880;28;20261;-71
2022/07/07 07:25:24;;;;;;;2.45;1.70;;;16.20;99.90;;;;;;5031022;28;20239;-71
2022/07/07 07:27:49;;;;;;;3.10;2.20;;;16.20;99.90;;;;;;5029374;28;20747;-70
2022/07/07 07:30:15;;;;;;;3.00;2.38;;;16.30;99.90;;;;;;5031215;28;20181;-72
2022/07/07 07:32:42;;;;;;;4.85;2.95;;;16.30;99.90;;;;;;5030681;28;20295;-72
2022/07/07 07:35:07;;;;;;;2.30;1.90;;;16.30;99.90;;;;;;5030900;28;20380;-71
2022/07/07 07:37:33;;;;;;;1.60;1.50;;;16.30;99.90;;;;;;5030587;28;20247;-71
2022/07/07 07:39:59;;;;;;;5.47;3.88;;;16.50;99.90;;;;;;5030523;28;20716;-70
2022/07/07 07:42:24;;;;;;;2.60;2.40;;;16.70;99.90;;;;;;5030645;28;20742;-71
2022/07/07 07:47:34;;;;;;;1.85;1.67;;;16.80;99.90;;;;;;5030685;28;20251;-72
2022/07/07 07:50:00;;;;;;;4.53;2.70;;;16.90;99.90;;;;;;5028484;28;20208;-71
2022/07/07 07:52:25;;;;;;;2.42;2.22;;;17.00;99.90;;;;;;5029303;28;20208;-71
2022/07/07 07:54:51;;;;;;;2.95;2.33;;;17.10;99.90;;;;;;5030501;28;20277;-71
2022/07/07 07:57:17;;;;;;;2.35;2.15;;;16.90;99.90;;;;;;5034480;28;20223;-71
2022/07/07 07:59:42;;;;;;;4.60;3.00;;;16.80;99.90;;;;;;5034083;28;20234;-70
2022/07/07 08:02:08;;;;;;;4.38;3.58;;;17.00;99.90;;;;;;5033183;28;20669;-71
2022/07/07 08:04:34;;;;;;;7.10;3.83;;;17.10;99.90;;;;;;5034382;28;20208;-72
2022/07/07 08:06:59;;;;;;;2.83;2.20;;;17.30;99.90;;;;;;5034632;28;20211;-71
2022/07/07 08:09:26;;;;;;;7.40;4.32;;;17.40;99.90;;;;;;5033840;28;20542;-71
2022/07/07 08:11:52;;;;;;;2.63;2.10;;;17.20;99.90;;;;;;5034717;28;20173;-71
2022/07/07 08:14:18;;;;;;;2.30;2.10;;;17.20;99.90;;;;;;5034424;28;20681;-72
2022/07/07 08:16:43;;;;;;;3.13;2.08;;;17.30;99.90;;;;;;5034010;28;20213;-71
2022/07/07 08:19:09;;;;;;;2.20;1.85;;;17.30;99.90;;;;;;5034008;28;20274;-71
2022/07/07 08:21:35;;;;;;;2.22;2.03;;;17.30;99.90;;;;;;5032846;28;20193;-72
2022/07/07 08:24:01;;;;;;;2.03;1.60;;;17.40;99.90;;;;;;5034457;28;20176;-72
2022/07/07 08:26:27;;;;;;;1.90;1.70;;;17.50;99.90;;;;;;5033718;28;20212;-71
2022/07/07 08:28:52;;;;;;;2.35;2.00;;;17.30;99.90;;;;;;5033800;28;20231;-71
2022/07/07 08:31:18;;;;;;;2.90;2.17;;;17.10;99.90;;;;;;5034158;28;20207;-71
2022/07/07 08:33:43;;;;;;;1.95;1.85;;;17.20;99.90;;;;;;5032360;28;20215;-73
2022/07/07 08:36:09;;;;;;;3.30;2.03;;;17.30;99.90;;;;;;5033050;28;20188;-72
2022/07/07 08:38:34;;;;;;;2.42;1.77;;;17.40;99.90;;;;;;5033203;28;20200;-71
2022/07/07 08:41:00;;;;;;;1.40;1.20;;;17.40;99.90;;;;;;5033759;28;20208;-72
2022/07/07 08:43:26;;;;;;;1.50;1.40;;;17.40;99.90;;;;;;5033434;28;20266;-71
2022/07/07 08:45:53;;;;;;;4.07;1.90;;;17.60;99.90;;;;;;5033761;28;20738;-71
2022/07/07 08:48:20;;;;;;;1.65;1.42;;;17.50;99.90;;;;;;5033973;28;20172;-71
2022/07/07 08:50:46;;;;;;;2.13;1.83;;;17.30;99.90;;;;;;5032451;28;20204;-71
2022/07/07 08:53:12;;;;;;;1.85;1.50;;;17.40;99.90;;;;;;5033599;28;20254;-71
2022/07/07 08:55:41;;;;;;;1.50;1.40;;;17.50;99.90;;;;;;5031944;28;20231;-71
2022/07/07 08:58:07;;;;;;;1.88;1.23;;;17.50;99.90;;;;;;5033326;28;20231;-70
2022/07/07 09:00:33;;;;;;;1.98;1.40;;;17.40;99.90;;;;;;5033283;28;20602;-72
2022/07/07 09:02:58;;;;;;;2.97;2.03;;;17.40;99.90;;;;;;5032575;28;20172;-72
2022/07/07 09:05:27;;;;;;;1.58;1.40;;;17.50;99.90;;;;;;5033311;28;20586;-71
2022/07/07 09:07:53;;;;;;;1.50;1.40;;;17.40;99.90;;;;;;5031102;28;20818;-72
2022/07/07 09:10:33;;;;;;;1.20;1.10;;;17.40;99.90;;;;;;5033162;28;20211;-72
2022/07/07 09:13:00;;;;;;;1.50;1.40;;;17.50;99.90;;;;;;5033444;28;20214;-72
2022/07/07 09:15:27;;;;;;;2.65;1.60;;;17.60;99.90;;;;;;5033367;28;20641;-71
2022/07/07 09:17:53;;;;;;;3.08;1.80;;;17.70;99.90;;;;;;5033439;28;20197;-72
2022/07/07 09:20:19;;;;;;;3.50;1.77;;;17.70;99.90;;;;;;5034336;28;20219;-74
2022/07/07 09:22:53;;;;;;;3.53;1.95;;;17.70;99.90;;;;;;5033190;28;20581;-73
2022/07/07 09:25:21;;;;;;;1.85;1.55;;;17.80;99.90;;;;;;5033149;28;20243;-72
2022/07/07 09:28:02;;;;;;;2.90;2.25;;;17.70;99.90;;;;;;5024741;28;20712;-71
2022/07/07 09:30:37;;;;;;;3.58;3.15;;;17.60;99.90;;;;;;5028691;28;20183;-72
2022/07/07 09:33:11;;;;;;;2.63;2.28;;;17.50;99.90;;;;;;5032856;28;20218;-70
2022/07/07 09:38:24;;;;;;;1.80;1.50;;;17.60;99.90;;;;;;5032620;28;20658;-73
2022/07/07 09:40:50;;;;;;;1.83;1.73;;;17.70;99.90;;;;;;5032744;28;20244;-71
2022/07/07 09:43:15;;;;;;;1.83;1.73;;;17.70;99.90;;;;;;5032571;28;20623;-74
2022/07/07 09:45:41;;;;;;;2.38;1.90;;;17.90;99.90;;;;;;5032526;28;20188;-73
2022/07/07 09:48:10;;;;;;;2.00;1.90;;;18.00;99.90;;;;;;5031406;28;20176;-72
2022/07/07 09:50:36;;;;;;;2.25;2.00;;;18.10;99.90;;;;;;5032306;28;20231;-72
2022/07/07 09:53:09;;;;;;;2.78;2.58;;;18.20;99.90;;;;;;5032684;28;20681;-73
2022/07/07 09:55:35;;;;;;;7.72;4.72;;;18.20;99.90;;;;;;5032158;28;20227;-73
2022/07/07 09:58:00;;;;;;;2.90;2.60;;;18.10;99.90;;;;;;5031973;28;20216;-73
2022/07/07 10:00:26;;;;;;;2.65;2.45;;;18.10;99.90;;;;;;5032117;28;20302;-74
2022/07/07 10:02:54;;;;;;;2.55;2.35;;;18.00;99.90;;;;;;5032952;28;20649;-73
2022/07/07 10:05:21;;;;;;;2.20;2.05;;;17.90;99.90;;;;;;5032435;28;20196;-74
2022/07/07 10:07:48;;;;;;;2.35;2.15;;;17.90;99.90;;;;;;5024023;28;20208;-71
2022/07/07 10:10:17;;;;;;;2.17;2.00;;;18.00;99.90;;;;;;5030682;28;20635;-74
2022/07/07 10:12:46;;;;;;;3.08;2.47;;;18.10;99.90;;;;;;5030610;28;20164;-73
2022/07/07 10:15:13;;;;;;;3.20;2.90;;;18.20;99.90;;;;;;5029481;28;20176;-75
2022/07/07 10:17:40;;;;;;;2.67;2.47;;;18.20;99.90;;;;;;5031244;28;20638;-76
2022/07/07 10:20:07;;;;;;;3.28;2.60;;;18.30;99.90;;;;;;5029453;28;20212;-77
2022/07/07 10:22:35;;;;;;;2.85;2.50;;;18.40;99.90;;;;;;5031659;28;20222;-76
2022/07/07 10:25:03;;;;;;;2.72;2.53;;;18.30;99.90;;;;;;5031787;28;20685;-69
2022/07/07 10:27:29;;;;;;;3.38;2.63;;;18.30;99.90;;;;;;5031627;28;20223;-72
2022/07/07 10:29:59;;;;;;;2.75;2.55;;;18.30;99.90;;;;;;5029530;28;20177;-73
2022/07/07 10:32:37;;;;;;;2.90;2.70;;;18.30;99.90;;;;;;5031302;28;20602;-74
2022/07/07 10:35:23;;;;;;;5.72;3.10;;;18.50;99.90;;;;;;5030089;28;20254;-74
2022/07/07 10:37:51;;;;;;;4.13;3.00;;;18.60;99.90;;;;;;5023507;28;20727;-73
2022/07/07 10:40:25;;;;;;;6.30;2.47;;;18.60;99.90;;;;;;5031273;28;20227;-74
2022/07/07 10:42:59;;;;;;;3.10;2.83;;;18.60;99.90;;;;;;5031521;28;20705;-74
2022/07/07 10:45:26;;;;;;;2.70;2.50;;;18.60;99.90;;;;;;5029972;28;20231;-73
2022/07/07 10:47:51;;;;;;;4.68;2.78;;;18.50;99.90;;;;;;5030189;28;20196;-74
2022/07/07 10:50:25;;;;;;;3.08;2.88;;;18.40;99.90;;;;;;5031239;28;20206;-75
2022/07/07 10:52:50;;;;;;;3.50;3.17;;;18.40;99.90;;;;;;5029887;28;20220;-74
2022/07/07 10:55:16;;;;;;;3.55;3.25;;;18.30;99.90;;;;;;5031414;28;20626;-72
2022/07/07 10:57:44;;;;;;;3.63;3.33;;;18.20;99.90;;;;;;5030955;28;20258;-72
2022/07/07 11:00:25;;;;;;;5.68;4.13;;;18.00;99.90;;;;;;5038821;28;20196;-77
2022/07/07 11:03:10;;;;;;;3.85;3.55;;;18.10;99.90;;;;;;5029804;28;20199;-76
2022/07/07 11:05:36;;;;;;;4.13;3.40;;;18.10;99.90;;;;;;5030539;28;20294;-75
2022/07/07 11:08:06;;;;;;;4.38;3.20;;;18.10;99.90;;;;;;5029734;28;20220;-77
2022/07/07 11:10:52;;;;;;;4.57;3.67;;;18.10;99.90;;;;;;5029193;28;20250;-77
2022/07/07 11:13:19;;;;;;;3.60;3.30;;;18.10;99.90;;;;;;5029707;28;20219;-76
2022/07/07 11:15:46;;;;;;;3.65;3.35;;;18.10;99.90;;;;;;5036896;28;20221;-74
2022/07/07 11:18:13;;;;;;;4.38;3.38;;;18.00;99.90;;;;;;5031420;28;20260;-74
2022/07/07 11:21:03;;;;;;;5.45;3.63;;;18.10;99.90;;;;;;5030785;28;20216;-75
2022/07/07 11:23:55;;;;;;;4.43;4.03;;;18.10;99.90;;;;;;5030588;28;20212;-74
2022/07/07 11:26:24;;;;;;;4.40;4.00;;;18.10;99.90;;;;;;5027724;28;20208;-76
2022/07/07 11:28:51;;;;;;;4.40;4.05;;;18.00;99.90;;;;;;5038865;28;20208;-77
2022/07/07 11:31:17;;;;;;;4.20;3.88;;;18.10;99.90;;;;;;5029370;28;20212;-76
2022/07/07 11:33:49;;;;;;;5.22;4.63;;;18.00;99.90;;;;;;5030986;28;20183;-76
2022/07/07 11:36:18;;;;;;;4.90;4.50;;;18.00;99.90;;;;;;5031656;28;20283;-73
2022/07/07 11:38:45;;;;;;;5.35;4.85;;;18.00;99.90;;;;;;5030641;28;20250;-74
2022/07/07 11:41:11;;;;;;;6.88;5.53;;;18.00;99.90;;;;;;5030975;28;20229;-74
2022/07/07 11:43:37;;;;;;;6.78;6.10;;;17.90;99.90;;;;;;5029541;28;20855;-75
2022/07/07 11:46:03;;;;;;;6.07;5.57;;;17.90;99.90;;;;;;5030802;28;20586;-75
2022/07/07 11:48:37;;;;;;;6.00;5.50;;;18.00;99.90;;;;;;5029164;28;20194;-72
2022/07/07 11:51:04;;;;;;;6.03;5.50;;;18.00;99.90;;;;;;5029800;28;20179;-73
2022/07/07 11:53:30;;;;;;;6.90;5.68;;;18.10;99.90;;;;;;5038636;28;20294;-73
2022/07/07 11:55:56;;;;;;;5.18;4.68;;;18.20;99.90;;;;;;5030350;28;20362;-75
2022/07/07 11:58:21;;;;;;;6.45;5.70;;;18.30;99.90;;;;;;5038189;28;20819;-77
2022/07/07 12:00:51;;;;;;;5.85;5.00;;;18.40;99.90;;;;;;5040005;28;20220;-76
2022/07/07 12:03:16;;;;;;;5.85;5.32;;;18.40;99.90;;;;;;5030014;28;20638;-79
2022/07/07 12:05:46;;;;;;;5.38;4.90;;;18.60;99.90;;;;;;5030709;28;20266;-74
2022/07/07 12:08:13;;;;;;;5.55;4.30;;;18.80;99.90;;;;;;5029944;28;20224;-74
2022/07/07 12:10:41;;;;;;;4.80;4.40;;;19.20;99.90;;;;;;5030119;28;20219;-74
2022/07/07 12:13:14;;;;;;;5.47;3.92;;;19.70;99.90;;;;;;5030288;28;20746;-76
2022/07/07 12:15:40;;;;;;;3.72;3.42;;;20.30;99.90;;;;;;5029728;28;20184;-77
2022/07/07 12:18:09;;;;;;;4.47;3.90;;;20.70;99.90;;;;;;5028107;28;20178;-77
2022/07/07 12:20:35;;;;;;;4.82;3.67;;;20.90;99.90;;;;;;5029933;28;20220;-73
2022/07/07 12:23:03;;;;;;;3.75;3.45;;;21.20;99.90;;;;;;5030522;28;20498;-74
2022/07/07 12:25:34;;;;;;;4.72;3.92;;;21.20;99.90;;;;;;5029830;28;20630;-75
2022/07/07 12:28:08;;;;;;;3.75;3.45;;;21.60;99.90;;;;;;5028608;28;20246;-77
2022/07/07 12:30:35;;;;;;;3.97;3.67;;;21.90;99.90;;;;;;5031423;28;20186;-78
2022/07/07 12:33:02;;;;;;;4.25;2.95;;;22.00;99.90;;;;;;5033800;28;20180;-76
2022/07/07 12:35:39;;;;;;;2.90;2.70;;;22.10;99.90;;;;;;5031173;28;20223;-76
2022/07/07 12:38:07;;;;;;;2.53;2.33;;;21.90;99.90;;;;;;5029906;28;20631;-75
2022/07/07 12:40:36;;;;;;;2.80;2.60;;;21.50;99.90;;;;;;5029826;28;20755;-76
2022/07/07 12:43:09;;;;;;;2.80;2.60;;;21.00;99.90;;;;;;5030885;28;20215;-73
2022/07/07 12:45:35;;;;;;;3.15;2.95;;;20.80;99.90;;;;;;5033569;28;20187;-78
2022/07/07 12:48:01;;;;;;;3.22;2.97;;;20.70;99.90;;;;;;5034140;28;20177;-74
2022/07/07 12:50:27;;;;;;;3.30;2.50;;;20.70;99.90;;;;;;5032847;28;20204;-74
2022/07/07 12:53:07;;;;;;;4.00;2.97;;;20.80;99.90;;;;;;5033316;28;20216;-74